Time;durP1;ratioP1;P1;durP2;ratioP2;P2;SDS_P1;SDS_P2;PMS_P1;PMS_P2;Temp;Humidity;BMP_temperature;BMP_pressure;BME280_temperature;BME280_humidity;BME280_pressure;Samples;Min_cycle;Max_cycle;Signal;HPM_P1;HPM_P2
2022/01/27 00:02:27;;;;;;;31.33;11.55;;;0.10;84.10;;;;;;5056361;28;20206;-80
2022/01/27 00:05:06;;;;;;;24.73;11.32;;;0.00;84.10;;;;;;5067422;28;20191;-79
2022/01/27 00:07:34;;;;;;;27.60;12.43;;;0.10;85.10;;;;;;5066886;28;20325;-78
2022/01/27 00:10:13;;;;;;;26.38;12.20;;;0.10;84.60;;;;;;5058737;28;20306;-76
2022/01/27 00:12:42;;;;;;;30.42;12.13;;;0.10;85.20;;;;;;5059939;28;20222;-77
2022/01/27 00:15:11;;;;;;;31.20;11.82;;;0.20;85.50;;;;;;5059661;28;20283;-77
2022/01/27 00:17:44;;;;;;;30.30;12.10;;;0.20;85.50;;;;;;5059042;28;20651;-77
2022/01/27 00:20:12;;;;;;;29.23;12.38;;;0.20;85.50;;;;;;5058518;28;20202;-79
2022/01/27 00:22:39;;;;;;;24.50;12.07;;;0.20;85.50;;;;;;5057263;28;20685;-78
2022/01/27 00:25:07;;;;;;;27.02;11.27;;;0.20;85.40;;;;;;5058601;28;20209;-78
2022/01/27 00:27:34;;;;;;;27.58;12.43;;;0.30;85.00;;;;;;5058237;28;20231;-77
2022/01/27 00:30:03;;;;;;;28.42;12.07;;;0.30;83.90;;;;;;5072696;28;20193;-79
2022/01/27 00:32:31;;;;;;;28.73;12.00;;;0.30;83.80;;;;;;5077609;28;20215;-79
2022/01/27 00:34:59;;;;;;;32.42;13.55;;;0.30;83.80;;;;;;5077285;28;20221;-83
2022/01/27 00:37:27;;;;;;;31.80;12.40;;;0.20;83.40;;;;;;5078927;28;20246;-79
2022/01/27 00:39:54;;;;;;;28.55;12.77;;;0.20;83.70;;;;;;5078598;28;20258;-82
2022/01/27 00:42:21;;;;;;;35.25;14.45;;;0.10;84.20;;;;;;5077505;28;20366;-81
2022/01/27 00:44:48;;;;;;;32.58;14.35;;;0.20;84.50;;;;;;5077056;28;20190;-81
2022/01/27 00:47:15;;;;;;;29.27;12.65;;;0.10;84.00;;;;;;5077875;28;20206;-84
2022/01/27 00:49:41;;;;;;;34.35;12.88;;;0.10;84.30;;;;;;5076865;28;20236;-82
2022/01/27 00:52:15;;;;;;;33.05;12.48;;;0.10;84.70;;;;;;5076433;28;20250;-81
2022/01/27 00:54:42;;;;;;;29.00;13.00;;;0.10;85.00;;;;;;5076759;28;20287;-83
2022/01/27 00:57:15;;;;;;;32.10;12.18;;;0.10;85.00;;;;;;5076855;28;20249;-79
2022/01/27 00:59:52;;;;;;;33.05;13.45;;;0.10;85.00;;;;;;5077162;28;20217;-79
2022/01/27 01:02:29;;;;;;;31.67;14.50;;;0.10;84.50;;;;;;5076756;28;20305;-79
2022/01/27 01:05:09;;;;;;;25.10;11.73;;;0.00;84.40;;;;;;5070254;28;20202;-76
2022/01/27 01:07:41;;;;;;;29.08;11.90;;;0.00;85.20;;;;;;5058464;28;20229;-76
2022/01/27 01:13:57;;;;;;;25.33;11.68;;;0.10;84.80;;;;;;5061985;28;20205;-77
2022/01/27 01:16:12;;;;;;;29.92;13.25;;;0.10;85.00;;;;;;5062560;28;20226;-76
2022/01/27 01:18:48;;;;;;;20.45;10.00;;;0.10;84.30;;;;;;5064915;28;20236;-76
2022/01/27 01:21:34;;;;;;;28.88;13.13;;;0.10;83.90;;;;;;5063528;28;20248;-78
2022/01/27 01:29:53;;;;;;;30.75;12.18;;;0.10;83.10;;;;;;5068053;28;20186;-76
2022/01/27 01:32:35;;;;;;;34.42;13.63;;;0.20;82.70;;;;;;5058478;28;20201;-77
2022/01/27 01:35:05;;;;;;;34.33;13.45;;;0.10;81.90;;;;;;5057643;28;22124;-77
2022/01/27 01:37:37;;;;;;;35.30;14.23;;;0.20;81.60;;;;;;5056827;28;20237;-78
2022/01/27 01:40:07;;;;;;;31.20;13.00;;;0.20;81.00;;;;;;5055288;28;20199;-76
2022/01/27 01:42:34;;;;;;;29.92;13.40;;;0.10;80.70;;;;;;5055100;28;20698;-77
2022/01/27 01:45:03;;;;;;;36.22;14.35;;;0.20;81.20;;;;;;5055406;28;20241;-76
2022/01/27 01:47:30;;;;;;;40.03;15.45;;;0.20;80.80;;;;;;5055565;28;20227;-77
2022/01/27 01:49:57;;;;;;;29.10;13.95;;;0.20;80.50;;;;;;5071766;28;20334;-77
2022/01/27 01:52:25;;;;;;;30.70;13.05;;;0.10;80.40;;;;;;5064421;28;20215;-77
2022/01/27 01:54:52;;;;;;;28.65;13.48;;;0.20;81.10;;;;;;5057436;28;20210;-77
2022/01/27 01:57:20;;;;;;;34.42;15.05;;;0.20;80.70;;;;;;5055415;28;20690;-77
2022/01/27 01:59:47;;;;;;;34.92;14.05;;;0.20;80.20;;;;;;5055414;28;20293;-77
2022/01/27 02:02:15;;;;;;;30.80;13.57;;;0.10;80.40;;;;;;5054481;28;20317;-77
2022/01/27 02:04:42;;;;;;;31.67;13.88;;;0.10;81.20;;;;;;5054722;28;20210;-76
2022/01/27 02:07:22;;;;;;;31.02;14.60;;;0.20;81.50;;;;;;5054973;28;20242;-77
2022/01/27 02:10:05;;;;;;;33.10;14.30;;;0.20;81.50;;;;;;5056065;28;20202;-77
2022/01/27 02:18:06;;;;;;;37.65;15.10;;;0.10;81.50;;;;;;5054188;28;20240;-78
2022/01/27 02:20:37;;;;;;;36.50;13.80;;;0.10;81.70;;;;;;5054272;28;20221;-77
2022/01/27 02:23:05;;;;;;;37.95;14.93;;;0.10;81.80;;;;;;5056805;28;20262;-78
2022/01/27 02:25:32;;;;;;;31.02;14.13;;;0.00;81.90;;;;;;5061377;28;20218;-77
2022/01/27 02:28:00;;;;;;;32.75;15.05;;;0.00;82.10;;;;;;5059205;28;20233;-76
2022/01/27 02:30:27;;;;;;;33.05;14.00;;;0.10;82.30;;;;;;5055844;28;20210;-77
2022/01/27 02:32:55;;;;;;;42.33;16.88;;;0.10;82.40;;;;;;5056202;28;20305;-76
2022/01/27 02:35:25;;;;;;;33.38;14.50;;;0.10;82.20;;;;;;5066552;28;20220;-79
2022/01/27 02:37:54;;;;;;;38.95;15.02;;;0.10;82.20;;;;;;5070717;28;20230;-77
2022/01/27 02:40:34;;;;;;;29.77;13.00;;;0.10;82.30;;;;;;5071959;28;20213;-77
2022/01/27 02:43:01;;;;;;;33.45;14.38;;;0.00;81.40;;;;;;5063637;28;20233;-77
2022/01/27 02:45:32;;;;;;;33.78;14.88;;;0.00;81.90;;;;;;5062889;28;20302;-77
2022/01/27 02:47:59;;;;;;;34.38;14.57;;;-0.10;82.20;;;;;;5067188;28;20222;-78
2022/01/27 02:50:26;;;;;;;34.10;16.35;;;-0.10;82.80;;;;;;5077055;28;20217;-81
2022/01/27 02:52:54;;;;;;;30.38;14.52;;;-0.10;82.90;;;;;;5077319;28;20185;-84
2022/01/27 02:55:21;;;;;;;28.83;13.60;;;-0.10;82.70;;;;;;5077459;28;20242;-84
2022/01/27 02:57:48;;;;;;;29.08;13.57;;;-0.20;82.50;;;;;;5077333;28;20228;-85
2022/01/27 03:00:16;;;;;;;30.98;12.30;;;-0.20;83.10;;;;;;5077409;28;20199;-84
2022/01/27 03:02:43;;;;;;;34.33;15.10;;;-0.20;83.20;;;;;;5076966;28;20202;-81
2022/01/27 03:05:10;;;;;;;31.35;15.45;;;-0.20;83.20;;;;;;5076809;28;20212;-83
2022/01/27 03:07:37;;;;;;;33.97;14.18;;;-0.20;82.80;;;;;;5074370;22;20234;-79
2022/01/27 03:10:06;;;;;;;30.50;13.05;;;-0.20;82.80;;;;;;5056070;28;20206;-80
2022/01/27 03:12:37;;;;;;;29.85;14.93;;;-0.20;82.70;;;;;;5069389;28;20218;-80
2022/01/27 03:15:04;;;;;;;39.03;15.15;;;-0.30;82.20;;;;;;5068561;28;20215;-80
2022/01/27 03:17:31;;;;;;;26.98;12.80;;;-0.30;82.30;;;;;;5057982;28;20230;-80
2022/01/27 03:19:58;;;;;;;36.45;14.20;;;-0.20;82.80;;;;;;5060052;28;20309;-80
2022/01/27 03:22:25;;;;;;;39.50;16.67;;;-0.20;81.80;;;;;;5060597;28;20206;-80
2022/01/27 03:24:52;;;;;;;34.92;13.13;;;-0.20;81.10;;;;;;5063458;28;20210;-80
2022/01/27 03:27:24;;;;;;;32.92;13.70;;;-0.30;81.20;;;;;;5066226;28;20294;-79
2022/01/27 03:29:51;;;;;;;33.33;15.18;;;-0.30;81.80;;;;;;5067571;28;20260;-78
2022/01/27 03:32:18;;;;;;;31.60;11.38;;;-0.20;81.90;;;;;;5066979;28;20203;-79
2022/01/27 03:34:45;;;;;;;29.75;14.10;;;-0.20;81.80;;;;;;5065593;28;20226;-81
2022/01/27 03:37:12;;;;;;;35.70;12.75;;;-0.20;81.10;;;;;;5057778;28;20226;-82
2022/01/27 03:39:41;;;;;;;40.15;15.85;;;-0.20;81.20;;;;;;5059339;28;20292;-79
2022/01/27 03:42:08;;;;;;;34.90;14.40;;;-0.20;81.20;;;;;;5059203;28;20275;-79
2022/01/27 03:44:37;;;;;;;35.35;14.57;;;-0.30;81.10;;;;;;5064833;28;20199;-80
2022/01/27 03:47:04;;;;;;;34.70;13.82;;;-0.30;81.40;;;;;;5072697;28;20222;-75
2022/01/27 03:49:31;;;;;;;30.30;13.40;;;-0.30;81.40;;;;;;5077338;28;20194;-76
2022/01/27 03:52:01;;;;;;;33.00;15.63;;;-0.30;81.30;;;;;;5077239;28;20187;-79
2022/01/27 03:54:30;;;;;;;35.78;14.75;;;-0.30;81.60;;;;;;5076505;28;20218;-80
2022/01/27 03:56:57;;;;;;;31.90;13.80;;;-0.30;81.90;;;;;;5071588;28;20218;-81
2022/01/27 03:59:26;;;;;;;30.08;13.75;;;-0.30;82.10;;;;;;5073974;28;20285;-80
2022/01/27 04:01:54;;;;;;;28.83;12.75;;;-0.30;81.80;;;;;;5067918;28;20573;-78
2022/01/27 04:04:21;;;;;;;33.10;14.65;;;-0.30;81.40;;;;;;5062507;28;20252;-78
2022/01/27 04:06:51;;;;;;;33.83;14.65;;;-0.30;81.10;;;;;;5061987;28;20234;-80
2022/01/27 04:09:19;;;;;;;35.05;13.48;;;-0.30;81.00;;;;;;5062528;28;20221;-79
2022/01/27 04:11:47;;;;;;;41.38;14.52;;;-0.30;81.00;;;;;;5061071;28;20213;-81
2022/01/27 04:14:14;;;;;;;35.80;14.85;;;-0.30;81.20;;;;;;5061172;28;20207;-79
2022/01/27 04:16:41;;;;;;;33.35;13.55;;;-0.20;81.30;;;;;;5060875;28;20234;-80
2022/01/27 04:19:10;;;;;;;33.10;14.07;;;-0.20;81.10;;;;;;5060280;28;20210;-79
2022/01/27 04:21:37;;;;;;;34.97;13.75;;;-0.20;81.10;;;;;;5061113;28;20268;-78
2022/01/27 04:24:04;;;;;;;34.97;16.38;;;-0.20;80.90;;;;;;5061771;28;20201;-80
2022/01/27 04:26:38;;;;;;;30.95;14.95;;;-0.20;81.10;;;;;;5061388;28;20226;-79
2022/01/27 04:29:05;;;;;;;28.92;14.07;;;-0.20;81.10;;;;;;5063417;28;20210;-79
2022/01/27 04:31:33;;;;;;;29.15;13.32;;;-0.20;81.00;;;;;;5074760;28;20203;-79
2022/01/27 04:34:00;;;;;;;31.05;14.15;;;-0.20;81.10;;;;;;5079106;28;20214;-78
2022/01/27 04:36:30;;;;;;;39.22;14.30;;;-0.20;80.30;;;;;;5078997;28;20214;-80
2022/01/27 04:39:07;;;;;;;39.00;14.95;;;-0.30;79.80;;;;;;5078046;28;20539;-80
2022/01/27 04:41:40;;;;;;;37.42;15.90;;;-0.30;80.20;;;;;;5061886;28;20787;-80
2022/01/27 04:44:15;;;;;;;31.77;14.25;;;-0.20;80.50;;;;;;5071482;28;20223;-79
2022/01/27 04:46:48;;;;;;;30.42;15.27;;;-0.20;80.40;;;;;;5065475;28;20221;-79
2022/01/27 04:49:15;;;;;;;38.38;14.90;;;-0.10;79.90;;;;;;5058699;28;20210;-79
2022/01/27 04:51:44;;;;;;;29.00;12.88;;;-0.20;79.30;;;;;;5057216;28;20233;-80
2022/01/27 04:54:16;;;;;;;32.67;13.98;;;-0.20;79.00;;;;;;5056474;28;20260;-82
2022/01/27 04:56:43;;;;;;;35.08;14.07;;;-0.20;78.70;;;;;;5056109;28;20226;-78
2022/01/27 04:59:16;;;;;;;29.58;13.48;;;-0.20;79.00;;;;;;5057192;28;20210;-78
2022/01/27 05:01:47;;;;;;;28.13;13.52;;;-0.30;78.80;;;;;;5057387;28;20221;-80
2022/01/27 05:04:17;;;;;;;28.70;14.00;;;-0.30;78.70;;;;;;5058702;28;20229;-78
2022/01/27 05:06:48;;;;;;;28.88;12.95;;;-0.30;78.80;;;;;;5057347;28;20329;-79
2022/01/27 05:09:15;;;;;;;30.13;12.43;;;-0.20;78.70;;;;;;5058125;28;20213;-79
2022/01/27 05:11:48;;;;;;;37.28;16.02;;;-0.30;77.00;;;;;;5058743;28;20654;-80
2022/01/27 05:14:18;;;;;;;34.05;13.68;;;-0.30;76.90;;;;;;5059463;28;20207;-79
2022/01/27 05:16:45;;;;;;;30.70;12.95;;;-0.30;77.50;;;;;;5058946;28;20726;-79
2022/01/27 05:19:12;;;;;;;27.80;12.23;;;-0.30;77.70;;;;;;5059341;28;20221;-80
2022/01/27 05:21:39;;;;;;;33.17;14.52;;;-0.30;77.90;;;;;;5060924;28;20275;-79
2022/01/27 05:24:08;;;;;;;36.00;13.88;;;-0.30;78.80;;;;;;5060735;28;20731;-80
2022/01/27 05:26:36;;;;;;;33.38;14.32;;;-0.30;77.90;;;;;;5060528;28;20276;-79
2022/01/27 05:29:03;;;;;;;36.25;15.00;;;-0.30;77.80;;;;;;5062056;28;20722;-79
2022/01/27 05:31:30;;;;;;;33.28;13.43;;;-0.30;77.80;;;;;;5067741;28;20210;-78
2022/01/27 05:33:57;;;;;;;28.23;12.65;;;-0.30;77.40;;;;;;5073808;28;20226;-79
2022/01/27 05:36:24;;;;;;;29.15;11.55;;;-0.30;76.90;;;;;;5074361;28;20229;-80
2022/01/27 05:38:51;;;;;;;31.38;13.52;;;-0.30;77.00;;;;;;5075430;28;20232;-79
2022/01/27 05:41:19;;;;;;;31.58;12.57;;;-0.30;76.90;;;;;;5072654;28;20236;-79
2022/01/27 05:43:46;;;;;;;31.85;13.38;;;-0.30;76.90;;;;;;5074708;28;20237;-76
2022/01/27 05:46:13;;;;;;;29.65;14.57;;;-0.30;76.90;;;;;;5077347;28;20250;-76
2022/01/27 05:48:40;;;;;;;34.45;12.80;;;-0.30;76.90;;;;;;5078375;28;20222;-77
2022/01/27 05:51:07;;;;;;;32.70;14.25;;;-0.40;76.80;;;;;;5076404;28;20283;-81
2022/01/27 05:53:35;;;;;;;30.55;12.55;;;-0.40;76.80;;;;;;5077129;28;20266;-79
2022/01/27 05:56:03;;;;;;;28.73;13.25;;;-0.30;77.70;;;;;;5072925;28;20206;-79
2022/01/27 05:58:32;;;;;;;32.95;13.35;;;-0.20;77.50;;;;;;5069491;28;20285;-80
2022/01/27 06:00:59;;;;;;;33.55;14.18;;;-0.20;77.00;;;;;;5070688;28;20202;-79
2022/01/27 06:03:26;;;;;;;30.75;13.32;;;-0.30;76.90;;;;;;5058544;28;20202;-79
2022/01/27 06:05:53;;;;;;;31.00;13.52;;;-0.20;77.00;;;;;;5071056;28;20203;-78
2022/01/27 06:08:20;;;;;;;38.65;13.65;;;-0.20;77.00;;;;;;5068253;28;20841;-80
2022/01/27 06:10:47;;;;;;;38.45;15.13;;;-0.20;77.00;;;;;;5069399;28;20217;-79
2022/01/27 06:13:14;;;;;;;35.72;14.60;;;-0.10;77.10;;;;;;5071146;28;20202;-80
2022/01/27 06:15:42;;;;;;;29.25;12.43;;;-0.20;77.10;;;;;;5070764;28;20217;-79
2022/01/27 06:18:09;;;;;;;37.83;13.35;;;-0.10;77.10;;;;;;5067774;28;20293;-80
2022/01/27 06:20:37;;;;;;;29.52;14.38;;;-0.10;77.10;;;;;;5059452;28;20581;-79
2022/01/27 06:23:04;;;;;;;30.08;13.20;;;-0.20;77.00;;;;;;5059807;28;20574;-79
2022/01/27 06:25:31;;;;;;;32.08;12.13;;;-0.20;77.00;;;;;;5062001;28;20234;-81
2022/01/27 06:27:58;;;;;;;27.73;13.13;;;-0.20;77.00;;;;;;5063438;28;20230;-79
2022/01/27 06:30:26;;;;;;;26.98;12.82;;;-0.20;76.30;;;;;;5067184;28;20210;-80
2022/01/27 06:32:54;;;;;;;25.50;11.73;;;-0.20;76.70;;;;;;5068982;28;20248;-79
2022/01/27 06:35:22;;;;;;;25.13;12.35;;;-0.10;75.70;;;;;;5069936;28;20269;-79
2022/01/27 06:37:49;;;;;;;24.83;11.48;;;-0.20;75.40;;;;;;5070563;28;20309;-81
2022/01/27 06:40:16;;;;;;;28.10;11.95;;;-0.20;75.40;;;;;;5069621;28;20206;-77
2022/01/27 06:42:43;;;;;;;34.47;12.15;;;-0.20;74.70;;;;;;5068257;28;20217;-79
2022/01/27 06:45:12;;;;;;;30.10;13.73;;;-0.20;74.70;;;;;;5068053;28;20213;-80
2022/01/27 06:47:39;;;;;;;29.48;11.10;;;-0.20;75.30;;;;;;5068923;28;20252;-80
2022/01/27 06:50:08;;;;;;;25.40;11.55;;;-0.20;75.00;;;;;;5067435;28;20202;-80
2022/01/27 06:52:35;;;;;;;29.48;12.45;;;-0.20;74.90;;;;;;5066611;28;20210;-81
2022/01/27 06:55:03;;;;;;;26.95;11.82;;;-0.20;74.40;;;;;;5068726;28;20222;-78
2022/01/27 06:57:30;;;;;;;29.30;11.73;;;-0.10;74.30;;;;;;5066054;28;20230;-79
2022/01/27 06:59:57;;;;;;;24.45;10.50;;;-0.10;74.10;;;;;;5063131;28;20215;-78
2022/01/27 07:02:24;;;;;;;26.02;11.05;;;-0.10;73.70;;;;;;5068297;28;20206;-78
2022/01/27 07:04:51;;;;;;;24.00;10.30;;;-0.20;73.20;;;;;;5068051;28;20286;-79
2022/01/27 07:07:19;;;;;;;25.20;11.48;;;-0.10;73.40;;;;;;5056724;28;20238;-78
2022/01/27 07:09:46;;;;;;;21.30;9.60;;;-0.10;73.00;;;;;;5055384;28;20218;-81
2022/01/27 07:12:13;;;;;;;21.38;9.50;;;-0.10;72.90;;;;;;5055071;28;20209;-79
2022/01/27 07:14:40;;;;;;;18.13;8.02;;;-0.10;72.40;;;;;;5052867;28;20655;-78
2022/01/27 07:17:07;;;;;;;27.80;10.10;;;-0.10;72.30;;;;;;5053167;28;20249;-78
2022/01/27 07:19:35;;;;;;;21.73;9.85;;;0.00;72.70;;;;;;5055791;28;20856;-79
2022/01/27 07:22:02;;;;;;;23.75;10.00;;;0.00;72.00;;;;;;5054794;28;20292;-77
2022/01/27 07:24:30;;;;;;;28.13;10.85;;;0.00;71.50;;;;;;5055493;28;20211;-78
2022/01/27 07:26:57;;;;;;;27.00;11.82;;;0.00;71.40;;;;;;5058007;28;20590;-78
2022/01/27 07:29:24;;;;;;;27.27;10.85;;;0.00;71.30;;;;;;5053478;28;20199;-78
2022/01/27 07:31:51;;;;;;;24.20;10.55;;;0.00;71.20;;;;;;5053274;28;20199;-79
2022/01/27 07:34:18;;;;;;;23.90;10.10;;;0.00;71.30;;;;;;5063585;28;20372;-79
2022/01/27 07:36:45;;;;;;;21.00;9.25;;;0.00;71.00;;;;;;5052720;28;20251;-78
2022/01/27 07:39:15;;;;;;;20.15;8.55;;;0.00;71.50;;;;;;5047996;28;20241;-80
2022/01/27 07:41:45;;;;;;;18.10;8.32;;;0.10;71.30;;;;;;5063629;28;20584;-78
2022/01/27 07:44:12;;;;;;;21.55;9.40;;;0.10;70.40;;;;;;5063678;28;20207;-78
2022/01/27 07:46:40;;;;;;;19.85;9.30;;;0.10;70.10;;;;;;5069193;28;20276;-77
2022/01/27 07:49:07;;;;;;;17.02;8.20;;;0.10;69.70;;;;;;5065561;28;20202;-78
2022/01/27 07:51:34;;;;;;;16.83;9.20;;;0.10;69.60;;;;;;5066040;28;20225;-76
2022/01/27 07:54:01;;;;;;;18.73;7.28;;;0.10;69.20;;;;;;5054196;28;20206;-78
2022/01/27 07:56:28;;;;;;;18.95;7.70;;;0.10;69.60;;;;;;5074253;28;20774;-78
2022/01/27 07:58:56;;;;;;;14.40;6.93;;;0.20;69.80;;;;;;5068754;28;20254;-79
2022/01/27 08:01:23;;;;;;;15.65;7.68;;;0.10;69.20;;;;;;5066329;28;20206;-77
2022/01/27 08:03:50;;;;;;;14.20;7.75;;;0.20;68.90;;;;;;5051123;28;20199;-78
2022/01/27 08:06:17;;;;;;;20.13;8.80;;;0.20;68.90;;;;;;5067848;28;20237;-78
2022/01/27 08:08:44;;;;;;;13.43;6.35;;;0.20;68.90;;;;;;5068376;28;20270;-78
2022/01/27 08:11:11;;;;;;;15.15;7.00;;;0.20;68.90;;;;;;5067975;28;20245;-78
2022/01/27 08:13:38;;;;;;;19.08;8.60;;;0.20;68.90;;;;;;5068328;28;20208;-78
2022/01/27 08:16:06;;;;;;;18.17;7.70;;;0.20;68.90;;;;;;5065940;28;20365;-78
2022/01/27 08:18:33;;;;;;;18.63;8.68;;;0.20;68.90;;;;;;5066770;28;20245;-80
2022/01/27 08:21:00;;;;;;;14.88;8.20;;;0.20;68.90;;;;;;5065899;28;20248;-78
2022/01/27 08:23:27;;;;;;;20.45;9.00;;;0.20;69.50;;;;;;5069834;28;20266;-78
2022/01/27 08:26:03;;;;;;;18.23;9.00;;;0.30;70.30;;;;;;5074492;28;20194;-78
2022/01/27 08:28:34;;;;;;;20.60;8.63;;;0.20;70.10;;;;;;5075334;28;20252;-80
2022/01/27 08:31:03;;;;;;;23.50;10.00;;;0.20;70.60;;;;;;5074818;28;20206;-79
2022/01/27 08:33:31;;;;;;;26.70;10.40;;;0.20;71.20;;;;;;5076343;28;20194;-75
2022/01/27 08:36:00;;;;;;;27.05;12.30;;;0.20;72.00;;;;;;5076425;28;20222;-79
2022/01/27 08:38:26;;;;;;;25.80;11.82;;;0.20;72.20;;;;;;5076113;28;20616;-77
2022/01/27 08:40:54;;;;;;;24.77;10.35;;;0.20;72.50;;;;;;5075099;28;20186;-76
2022/01/27 08:43:21;;;;;;;24.33;12.40;;;0.20;73.10;;;;;;5070686;28;20266;-77
2022/01/27 08:45:50;;;;;;;26.08;11.40;;;0.10;73.70;;;;;;5067867;28;20198;-80
2022/01/27 08:48:20;;;;;;;35.63;12.05;;;0.20;74.80;;;;;;5069260;28;20210;-80
2022/01/27 08:50:58;;;;;;;23.48;12.20;;;0.20;74.60;;;;;;5072133;28;20210;-78
2022/01/27 08:53:26;;;;;;;26.00;12.38;;;0.20;74.20;;;;;;5071438;28;20266;-78
2022/01/27 08:55:53;;;;;;;32.88;13.80;;;0.20;74.80;;;;;;5070110;28;20215;-79
2022/01/27 08:58:20;;;;;;;34.80;14.55;;;0.20;75.40;;;;;;5068370;28;20230;-79
2022/01/27 09:00:47;;;;;;;28.67;12.63;;;0.20;74.90;;;;;;5073520;28;20206;-78
2022/01/27 09:03:15;;;;;;;32.20;13.52;;;0.10;74.90;;;;;;5073580;28;20197;-80
2022/01/27 09:05:42;;;;;;;24.75;11.20;;;0.20;75.00;;;;;;5068643;28;20233;-77
2022/01/27 09:08:11;;;;;;;28.83;12.75;;;0.10;75.00;;;;;;5076256;22;20242;-80
2022/01/27 09:10:38;;;;;;;33.28;14.60;;;0.10;75.20;;;;;;5048524;28;20211;-79
2022/01/27 09:13:05;;;;;;;36.88;16.08;;;0.10;75.60;;;;;;5049272;28;20203;-81
2022/01/27 09:15:33;;;;;;;37.10;15.50;;;0.20;75.70;;;;;;5055691;28;20227;-78
2022/01/27 09:18:01;;;;;;;38.25;16.58;;;0.30;75.30;;;;;;5049763;28;20260;-79
2022/01/27 09:20:28;;;;;;;33.20;14.35;;;0.30;74.90;;;;;;5050112;28;20222;-78
2022/01/27 09:22:57;;;;;;;36.88;16.35;;;0.30;74.70;;;;;;5053380;28;20205;-78
2022/01/27 09:25:31;;;;;;;40.00;17.15;;;0.30;74.50;;;;;;5047951;28;20279;-78
2022/01/27 09:27:58;;;;;;;36.55;15.10;;;0.40;74.00;;;;;;5045945;28;20231;-79
2022/01/27 09:30:26;;;;;;;39.20;16.55;;;0.40;73.40;;;;;;5045262;28;20341;-79
2022/01/27 09:32:53;;;;;;;38.40;16.00;;;0.50;73.10;;;;;;5043863;28;20213;-79
2022/01/27 09:35:20;;;;;;;37.40;15.63;;;0.50;72.80;;;;;;5045217;28;20297;-80
2022/01/27 09:37:47;;;;;;;48.00;14.93;;;0.40;71.30;;;;;;5041215;28;20245;-81
2022/01/27 09:40:15;;;;;;;33.83;15.70;;;0.40;71.90;;;;;;5043179;28;20280;-79
2022/01/27 09:42:49;;;;;;;28.13;13.23;;;0.50;71.70;;;;;;5042097;28;20254;-80
2022/01/27 09:45:16;;;;;;;33.22;15.88;;;0.50;70.80;;;;;;5045346;28;20285;-79
2022/01/27 09:47:52;;;;;;;40.83;15.90;;;0.60;71.10;;;;;;5045194;28;20251;-79
2022/01/27 09:50:26;;;;;;;34.45;15.65;;;0.60;71.10;;;;;;5040463;28;20211;-80
2022/01/27 09:52:54;;;;;;;35.65;16.05;;;0.70;69.40;;;;;;5041404;28;20443;-80
2022/01/27 09:55:21;;;;;;;38.83;15.02;;;0.70;69.80;;;;;;5042515;28;20211;-80
2022/01/27 09:57:52;;;;;;;33.42;13.07;;;0.80;69.60;;;;;;5041871;28;20266;-78
2022/01/27 10:00:20;;;;;;;40.28;16.10;;;0.80;69.50;;;;;;5036849;28;20222;-78
2022/01/27 10:03:04;;;;;;;37.00;16.05;;;0.80;69.50;;;;;;5045987;28;20202;-79
2022/01/27 10:05:32;;;;;;;39.33;16.08;;;0.80;69.50;;;;;;5065351;28;20532;-78
2022/01/27 10:08:05;;;;;;;41.33;16.20;;;0.90;69.50;;;;;;5048817;28;20255;-79
2022/01/27 10:10:37;;;;;;;36.20;14.32;;;0.90;69.50;;;;;;5042891;28;20207;-77
2022/01/27 10:13:08;;;;;;;39.58;17.38;;;0.90;69.50;;;;;;5043455;28;20640;-79
2022/01/27 10:15:38;;;;;;;40.75;16.30;;;1.00;69.60;;;;;;5021185;28;20685;-78
2022/01/27 10:18:08;;;;;;;42.70;16.30;;;1.00;69.60;;;;;;5031937;28;20651;-79
2022/01/27 10:20:36;;;;;;;34.72;16.55;;;1.00;69.60;;;;;;5033236;28;20215;-79
2022/01/27 10:23:11;;;;;;;41.78;16.17;;;1.00;69.60;;;;;;5034769;28;20192;-79
2022/01/27 10:25:46;;;;;;;40.90;16.88;;;1.00;69.60;;;;;;5036008;28;20214;-79
2022/01/27 10:28:34;;;;;;;41.00;16.55;;;1.10;69.70;;;;;;5035593;28;20252;-77
2022/01/27 10:31:04;;;;;;;36.50;15.38;;;1.10;69.70;;;;;;5035773;28;20253;-78
2022/01/27 10:33:46;;;;;;;36.80;16.10;;;1.20;69.80;;;;;;5035454;28;20268;-79
2022/01/27 10:36:18;;;;;;;31.33;15.43;;;1.10;69.70;;;;;;5036030;28;20203;-79
2022/01/27 10:38:45;;;;;;;34.75;16.33;;;1.10;69.70;;;;;;5036437;28;20223;-79
2022/01/27 10:41:12;;;;;;;36.05;15.52;;;1.20;69.80;;;;;;5034821;28;20213;-78
2022/01/27 10:43:41;;;;;;;41.33;16.42;;;1.30;69.90;;;;;;5032699;28;20207;-80
2022/01/27 10:46:14;;;;;;;32.92;15.38;;;1.30;69.90;;;;;;5014385;28;20254;-78
2022/01/27 10:48:45;;;;;;;38.90;17.95;;;1.30;69.70;;;;;;5034020;28;20191;-77
2022/01/27 10:51:19;;;;;;;29.27;12.65;;;1.40;68.50;;;;;;5032550;28;20207;-78
2022/01/27 10:53:51;;;;;;;30.58;14.68;;;1.50;67.60;;;;;;5033383;28;20289;-80
2022/01/27 10:56:21;;;;;;;33.83;14.65;;;1.50;67.70;;;;;;5033646;28;20301;-78
2022/01/27 10:58:50;;;;;;;31.90;14.13;;;1.60;67.10;;;;;;5033818;28;20306;-79
2022/01/27 11:01:28;;;;;;;30.48;14.73;;;1.70;66.50;;;;;;5033104;28;20207;-77
2022/01/27 11:03:59;;;;;;;30.23;14.65;;;1.80;66.10;;;;;;5036514;28;20294;-79
2022/01/27 11:06:28;;;;;;;26.77;13.43;;;1.90;65.60;;;;;;5051754;28;20247;-82
2022/01/27 11:08:58;;;;;;;31.60;14.23;;;2.00;64.70;;;;;;5045276;28;20627;-80
2022/01/27 11:11:26;;;;;;;29.50;14.15;;;2.00;64.10;;;;;;5055824;28;20237;-77
2022/01/27 11:13:55;;;;;;;36.38;14.68;;;2.10;63.70;;;;;;5051961;28;20442;-79
2022/01/27 11:16:28;;;;;;;31.23;13.32;;;2.10;63.70;;;;;;5039767;28;20257;-78
2022/01/27 11:19:11;;;;;;;29.27;13.95;;;2.20;63.50;;;;;;5038638;28;20290;-76
2022/01/27 11:21:40;;;;;;;26.35;13.32;;;2.20;62.80;;;;;;5040244;28;20583;-76
2022/01/27 11:24:16;;;;;;;23.05;12.85;;;2.30;63.00;;;;;;5049936;28;20264;-77
2022/01/27 11:26:45;;;;;;;26.48;13.80;;;2.50;62.70;;;;;;5049410;28;20230;-78
2022/01/27 11:29:15;;;;;;;28.40;13.40;;;2.50;62.20;;;;;;5045157;28;20253;-77
2022/01/27 11:31:55;;;;;;;28.80;13.00;;;2.70;62.40;;;;;;5028842;28;20278;-78
2022/01/27 11:34:23;;;;;;;23.70;11.98;;;2.70;61.30;;;;;;5043967;28;20203;-77
2022/01/27 11:37:05;;;;;;;26.67;14.68;;;2.80;61.30;;;;;;5036351;28;20601;-76
2022/01/27 11:39:49;;;;;;;29.23;12.00;;;2.70;61.20;;;;;;5045084;28;20279;-77
2022/01/27 11:42:19;;;;;;;25.52;11.85;;;2.70;61.40;;;;;;5046585;28;20253;-78
2022/01/27 11:44:48;;;;;;;27.10;13.63;;;2.80;61.50;;;;;;5048586;28;20241;-77
2022/01/27 11:47:20;;;;;;;26.27;12.85;;;2.80;61.40;;;;;;5045922;28;20238;-79
2022/01/27 11:49:58;;;;;;;24.65;13.25;;;2.70;61.30;;;;;;5055713;28;20210;-77
2022/01/27 11:52:28;;;;;;;25.00;13.40;;;2.80;61.70;;;;;;5053445;28;20312;-77
2022/01/27 11:55:19;;;;;;;24.85;12.05;;;2.70;61.80;;;;;;5047712;28;20623;-78
2022/01/27 11:57:48;;;;;;;20.95;11.35;;;2.70;62.30;;;;;;5049409;28;20226;-78
2022/01/27 12:00:19;;;;;;;23.77;12.52;;;2.70;62.30;;;;;;5052835;28;20269;-77
2022/01/27 12:03:13;;;;;;;26.85;14.57;;;2.70;62.30;;;;;;5047573;28;20251;-77
2022/01/27 12:05:41;;;;;;;23.60;11.35;;;2.80;62.40;;;;;;5045983;28;20294;-78
2022/01/27 12:08:24;;;;;;;25.88;14.23;;;2.80;62.50;;;;;;5044515;28;20253;-77
2022/01/27 12:10:56;;;;;;;23.67;12.50;;;2.80;62.50;;;;;;5045806;28;20214;-79
2022/01/27 12:13:55;;;;;;;24.15;12.85;;;2.90;62.00;;;;;;5048518;28;20566;-78
2022/01/27 12:16:39;;;;;;;27.35;13.63;;;2.90;62.50;;;;;;5047285;28;20275;-79
2022/01/27 12:19:08;;;;;;;26.17;12.70;;;2.90;61.80;;;;;;5050399;28;20199;-78
2022/01/27 12:21:38;;;;;;;27.48;12.20;;;2.90;62.00;;;;;;5054170;28;20211;-78
2022/01/27 12:24:25;;;;;;;26.83;13.18;;;2.80;62.10;;;;;;5054376;28;20207;-78
2022/01/27 12:26:53;;;;;;;28.38;14.80;;;2.90;62.50;;;;;;5056577;28;20223;-79
2022/01/27 12:29:34;;;;;;;34.17;14.50;;;2.80;62.20;;;;;;5058046;28;20192;-78
2022/01/27 12:32:05;;;;;;;30.95;14.88;;;2.80;62.40;;;;;;5057946;28;20191;-76
2022/01/27 12:34:33;;;;;;;21.80;12.93;;;2.80;62.40;;;;;;5058533;28;20271;-77
2022/01/27 12:37:06;;;;;;;25.98;12.60;;;2.90;62.10;;;;;;5056177;28;20279;-79
2022/01/27 12:39:37;;;;;;;24.75;12.52;;;2.90;62.50;;;;;;5054839;28;20223;-78
2022/01/27 12:42:07;;;;;;;30.20;13.82;;;3.00;61.50;;;;;;5046129;28;20620;-79
2022/01/27 12:44:35;;;;;;;28.98;12.13;;;3.10;61.00;;;;;;5043634;28;20304;-77
2022/01/27 12:47:13;;;;;;;21.38;12.48;;;3.20;60.30;;;;;;5043997;28;20223;-78
2022/01/27 12:49:46;;;;;;;24.08;13.40;;;3.30;60.00;;;;;;5041667;28;20211;-79
2022/01/27 12:52:16;;;;;;;22.48;12.60;;;3.20;59.50;;;;;;5042728;28;20226;-80
2022/01/27 12:54:44;;;;;;;23.05;12.38;;;3.20;59.70;;;;;;5045119;28;20278;-77
2022/01/27 12:57:13;;;;;;;32.20;12.80;;;3.20;59.60;;;;;;5050012;28;20294;-78
2022/01/27 12:59:42;;;;;;;27.13;11.90;;;3.30;59.40;;;;;;5052428;28;20314;-78
2022/01/27 13:02:12;;;;;;;27.63;13.10;;;3.50;59.50;;;;;;5054633;28;20210;-80